sensor_id;sensor_type;location;lat;lon;timestamp;P1;durP1;ratioP1;P2;durP2;ratioP2
15820;SDS011;8011;51.650;7.240;2022-09-13T03:02:42;3.57;;;3.20;;
15820;SDS011;8011;51.650;7.240;2022-09-13T03:05:09;3.97;;;3.57;;
15820;SDS011;8011;51.650;7.240;2022-09-13T03:07:35;4.60;;;3.30;;
15820;SDS011;8011;51.650;7.240;2022-09-13T03:10:02;5.47;;;3.10;;
15820;SDS011;8011;51.650;7.240;2022-09-13T03:12:54;6.20;;;3.10;;
15820;SDS011;8011;51.650;7.240;2022-09-13T03:29:42;3.27;;;2.97;;
15820;SDS011;8011;51.650;7.240;2022-09-13T03:35:06;3.97;;;3.60;;
15820;SDS011;8011;51.650;7.240;2022-09-13T03:45:32;3.60;;;3.30;;
15820;SDS011;8011;51.650;7.240;2022-09-13T03:48:02;5.00;;;3.30;;
15820;SDS011;8011;51.650;7.240;2022-09-13T03:50:29;3.50;;;3.20;;
15820;SDS011;8011;51.650;7.240;2022-09-13T03:52:59;4.03;;;3.30;;
15820;SDS011;8011;51.650;7.240;2022-09-13T03:55:30;3.63;;;3.00;;
15820;SDS011;8011;51.650;7.240;2022-09-13T03:57:58;3.93;;;2.90;;
15820;SDS011;8011;51.650;7.240;2022-09-13T04:00:25;3.47;;;3.17;;
15820;SDS011;8011;51.650;7.240;2022-09-13T04:02:50;3.33;;;3.03;;
15820;SDS011;8011;51.650;7.240;2022-09-13T04:05:16;3.50;;;3.20;;
15820;SDS011;8011;51.650;7.240;2022-09-13T04:07:42;3.50;;;3.20;;
15820;SDS011;8011;51.650;7.240;2022-09-13T04:10:08;3.33;;;3.03;;
15820;SDS011;8011;51.650;7.240;2022-09-13T04:12:34;5.07;;;3.43;;
15820;SDS011;8011;51.650;7.240;2022-09-13T04:15:00;3.70;;;3.20;;
15820;SDS011;8011;51.650;7.240;2022-09-13T04:17:26;3.13;;;2.83;;
15820;SDS011;8011;51.650;7.240;2022-09-13T04:19:52;3.23;;;2.77;;
15820;SDS011;8011;51.650;7.240;2022-09-13T04:22:17;3.53;;;3.20;;
15820;SDS011;8011;51.650;7.240;2022-09-13T04:24:43;4.40;;;3.60;;
15820;SDS011;8011;51.650;7.240;2022-09-13T04:27:09;5.17;;;3.37;;
15820;SDS011;8011;51.650;7.240;2022-09-13T04:29:34;3.57;;;3.23;;
15820;SDS011;8011;51.650;7.240;2022-09-13T04:32:00;5.47;;;3.03;;
15820;SDS011;8011;51.650;7.240;2022-09-13T04:34:26;4.13;;;3.50;;
15820;SDS011;8011;51.650;7.240;2022-09-13T04:36:52;5.87;;;3.47;;
15820;SDS011;8011;51.650;7.240;2022-09-13T04:39:18;4.57;;;3.40;;
15820;SDS011;8011;51.650;7.240;2022-09-13T04:41:45;4.07;;;3.43;;
15820;SDS011;8011;51.650;7.240;2022-09-13T04:44:14;3.53;;;3.23;;
15820;SDS011;8011;51.650;7.240;2022-09-13T04:46:41;3.70;;;3.30;;
15820;SDS011;8011;51.650;7.240;2022-09-13T04:49:08;5.83;;;3.47;;
15820;SDS011;8011;51.650;7.240;2022-09-13T04:51:34;5.57;;;3.40;;
15820;SDS011;8011;51.650;7.240;2022-09-13T04:54:00;3.57;;;3.27;;
15820;SDS011;8011;51.650;7.240;2022-09-13T04:56:25;3.50;;;3.20;;
15820;SDS011;8011;51.650;7.240;2022-09-13T04:58:52;4.70;;;3.13;;
15820;SDS011;8011;51.650;7.240;2022-09-13T05:01:19;3.77;;;3.37;;
15820;SDS011;8011;51.650;7.240;2022-09-13T05:03:46;3.73;;;3.43;;
15820;SDS011;8011;51.650;7.240;2022-09-13T05:06:12;5.20;;;3.73;;
15820;SDS011;8011;51.650;7.240;2022-09-13T05:08:42;3.50;;;3.20;;
15820;SDS011;8011;51.650;7.240;2022-09-13T05:11:08;3.57;;;3.27;;
15820;SDS011;8011;51.650;7.240;2022-09-13T05:13:34;3.87;;;3.47;;
15820;SDS011;8011;51.650;7.240;2022-09-13T05:16:01;3.67;;;3.37;;
15820;SDS011;8011;51.650;7.240;2022-09-13T05:18:30;5.47;;;3.20;;
15820;SDS011;8011;51.650;7.240;2022-09-13T05:20:57;3.73;;;3.17;;
15820;SDS011;8011;51.650;7.240;2022-09-13T05:23:24;4.67;;;3.20;;
15820;SDS011;8011;51.650;7.240;2022-09-13T05:25:52;4.23;;;3.50;;
15820;SDS011;8011;51.650;7.240;2022-09-13T05:28:19;3.50;;;3.20;;
15820;SDS011;8011;51.650;7.240;2022-09-13T05:30:52;3.47;;;3.17;;
15820;SDS011;8011;51.650;7.240;2022-09-13T05:33:23;3.27;;;2.97;;
15820;SDS011;8011;51.650;7.240;2022-09-13T05:35:49;3.23;;;2.93;;
15820;SDS011;8011;51.650;7.240;2022-09-13T05:38:16;3.50;;;2.93;;
15820;SDS011;8011;51.650;7.240;2022-09-13T05:40:42;5.27;;;3.30;;
15820;SDS011;8011;51.650;7.240;2022-09-13T05:43:07;3.53;;;3.00;;
15820;SDS011;8011;51.650;7.240;2022-09-13T05:45:33;3.90;;;3.20;;
15820;SDS011;8011;51.650;7.240;2022-09-13T05:47:59;3.30;;;3.00;;
15820;SDS011;8011;51.650;7.240;2022-09-13T05:50:24;3.57;;;3.23;;
15820;SDS011;8011;51.650;7.240;2022-09-13T05:52:51;3.47;;;3.13;;
15820;SDS011;8011;51.650;7.240;2022-09-13T05:55:17;5.17;;;3.40;;
15820;SDS011;8011;51.650;7.240;2022-09-13T05:57:43;5.63;;;3.40;;
15820;SDS011;8011;51.650;7.240;2022-09-13T06:00:09;3.90;;;3.23;;
15820;SDS011;8011;51.650;7.240;2022-09-13T06:02:35;5.70;;;3.37;;
15820;SDS011;8011;51.650;7.240;2022-09-13T06:05:01;4.10;;;3.70;;
15820;SDS011;8011;51.650;7.240;2022-09-13T06:07:26;4.93;;;3.40;;
15820;SDS011;8011;51.650;7.240;2022-09-13T06:09:52;5.03;;;3.60;;
15820;SDS011;8011;51.650;7.240;2022-09-13T06:12:18;5.03;;;3.73;;
15820;SDS011;8011;51.650;7.240;2022-09-13T06:14:44;5.37;;;3.47;;
15820;SDS011;8011;51.650;7.240;2022-09-13T06:17:09;5.50;;;3.80;;
15820;SDS011;8011;51.650;7.240;2022-09-13T06:19:35;3.93;;;3.57;;
15820;SDS011;8011;51.650;7.240;2022-09-13T06:22:00;3.83;;;3.47;;
15820;SDS011;8011;51.650;7.240;2022-09-13T06:24:26;3.80;;;3.50;;
15820;SDS011;8011;51.650;7.240;2022-09-13T06:26:52;4.37;;;3.53;;
15820;SDS011;8011;51.650;7.240;2022-09-13T06:29:18;4.27;;;3.47;;
15820;SDS011;8011;51.650;7.240;2022-09-13T06:31:43;3.90;;;3.50;;
15820;SDS011;8011;51.650;7.240;2022-09-13T06:34:10;5.43;;;3.30;;
15820;SDS011;8011;51.650;7.240;2022-09-13T06:36:40;4.10;;;3.70;;
15820;SDS011;8011;51.650;7.240;2022-09-13T06:39:06;5.03;;;3.30;;
15820;SDS011;8011;51.650;7.240;2022-09-13T06:41:32;4.20;;;3.77;;
15820;SDS011;8011;51.650;7.240;2022-09-13T06:43:59;3.60;;;3.30;;
15820;SDS011;8011;51.650;7.240;2022-09-13T06:46:28;4.43;;;3.70;;
15820;SDS011;8011;51.650;7.240;2022-09-13T06:48:57;3.87;;;3.47;;
15820;SDS011;8011;51.650;7.240;2022-09-13T06:51:24;5.07;;;3.27;;
15820;SDS011;8011;51.650;7.240;2022-09-13T06:53:50;3.77;;;3.30;;
15820;SDS011;8011;51.650;7.240;2022-09-13T06:56:18;4.33;;;3.73;;
15820;SDS011;8011;51.650;7.240;2022-09-13T06:58:46;5.97;;;3.60;;
15820;SDS011;8011;51.650;7.240;2022-09-13T07:01:14;4.17;;;3.63;;
15820;SDS011;8011;51.650;7.240;2022-09-13T07:03:43;5.37;;;4.00;;
15820;SDS011;8011;51.650;7.240;2022-09-13T07:06:12;4.73;;;3.83;;
15820;SDS011;8011;51.650;7.240;2022-09-13T07:08:39;5.90;;;3.77;;
15820;SDS011;8011;51.650;7.240;2022-09-13T07:11:06;5.90;;;4.43;;
15820;SDS011;8011;51.650;7.240;2022-09-13T07:13:33;4.57;;;3.90;;
15820;SDS011;8011;51.650;7.240;2022-09-13T07:16:06;4.37;;;3.93;;
15820;SDS011;8011;51.650;7.240;2022-09-13T07:18:34;4.27;;;3.63;;
15820;SDS011;8011;51.650;7.240;2022-09-13T07:21:01;5.30;;;4.50;;
15820;SDS011;8011;51.650;7.240;2022-09-13T07:23:29;5.87;;;4.60;;
15820;SDS011;8011;51.650;7.240;2022-09-13T07:26:00;5.27;;;4.60;;
15820;SDS011;8011;51.650;7.240;2022-09-13T07:28:36;4.97;;;4.20;;
15820;SDS011;8011;51.650;7.240;2022-09-13T07:31:20;4.87;;;4.27;;
15820;SDS011;8011;51.650;7.240;2022-09-13T07:33:49;5.47;;;4.60;;
15820;SDS011;8011;51.650;7.240;2022-09-13T07:36:19;5.67;;;4.53;;
15820;SDS011;8011;51.650;7.240;2022-09-13T07:38:45;6.90;;;4.60;;
15820;SDS011;8011;51.650;7.240;2022-09-13T07:41:12;5.20;;;4.70;;
15820;SDS011;8011;51.650;7.240;2022-09-13T07:43:39;7.40;;;4.57;;
15820;SDS011;8011;51.650;7.240;2022-09-13T07:46:06;5.37;;;4.53;;
15820;SDS011;8011;51.650;7.240;2022-09-13T07:48:34;6.30;;;4.93;;
15820;SDS011;8011;51.650;7.240;2022-09-13T07:51:02;6.83;;;4.10;;
15820;SDS011;8011;51.650;7.240;2022-09-13T07:53:36;8.07;;;4.87;;
15820;SDS011;8011;51.650;7.240;2022-09-13T07:58:52;6.27;;;5.10;;
15820;SDS011;8011;51.650;7.240;2022-09-13T08:01:23;6.17;;;4.63;;
15820;SDS011;8011;51.650;7.240;2022-09-13T08:03:54;6.23;;;4.67;;
15820;SDS011;8011;51.650;7.240;2022-09-13T08:06:21;6.27;;;4.73;;
15820;SDS011;8011;51.650;7.240;2022-09-13T08:08:48;7.17;;;5.27;;
15820;SDS011;8011;51.650;7.240;2022-09-13T08:11:17;8.50;;;5.83;;
15820;SDS011;8011;51.650;7.240;2022-09-13T08:13:51;7.73;;;5.10;;
15820;SDS011;8011;51.650;7.240;2022-09-13T08:16:18;7.60;;;5.57;;
15820;SDS011;8011;51.650;7.240;2022-09-13T08:18:45;10.20;;;6.03;;
15820;SDS011;8011;51.650;7.240;2022-09-13T08:21:12;9.33;;;6.10;;
15820;SDS011;8011;51.650;7.240;2022-09-13T08:23:38;9.00;;;6.07;;
15820;SDS011;8011;51.650;7.240;2022-09-13T08:26:04;7.47;;;6.07;;
15820;SDS011;8011;51.650;7.240;2022-09-13T08:28:32;8.10;;;6.00;;
15820;SDS011;8011;51.650;7.240;2022-09-13T08:31:12;8.00;;;6.70;;
15820;SDS011;8011;51.650;7.240;2022-09-13T08:33:44;8.40;;;6.70;;
15820;SDS011;8011;51.650;7.240;2022-09-13T08:36:11;7.17;;;6.47;;
15820;SDS011;8011;51.650;7.240;2022-09-13T08:38:37;9.53;;;6.60;;
15820;SDS011;8011;51.650;7.240;2022-09-13T08:41:03;9.63;;;7.33;;
15820;SDS011;8011;51.650;7.240;2022-09-13T08:46:36;9.77;;;6.60;;
15820;SDS011;8011;51.650;7.240;2022-09-13T08:49:06;9.33;;;6.83;;
15820;SDS011;8011;51.650;7.240;2022-09-13T08:51:44;8.23;;;7.13;;
15820;SDS011;8011;51.650;7.240;2022-09-13T08:54:14;9.57;;;7.77;;
15820;SDS011;8011;51.650;7.240;2022-09-13T09:04:52;11.77;;;7.80;;
15820;SDS011;8011;51.650;7.240;2022-09-13T09:07:26;10.40;;;8.03;;
15820;SDS011;8011;51.650;7.240;2022-09-13T09:09:56;10.93;;;8.23;;
15820;SDS011;8011;51.650;7.240;2022-09-13T09:12:49;8.83;;;7.47;;
15820;SDS011;8011;51.650;7.240;2022-09-13T09:15:54;11.13;;;7.57;;
15820;SDS011;8011;51.650;7.240;2022-09-13T09:18:17;8.80;;;7.73;;
15820;SDS011;8011;51.650;7.240;2022-09-13T09:20:50;10.13;;;7.93;;
15820;SDS011;8011;51.650;7.240;2022-09-13T09:23:18;9.70;;;7.73;;
15820;SDS011;8011;51.650;7.240;2022-09-13T09:25:46;8.73;;;6.80;;
15820;SDS011;8011;51.650;7.240;2022-09-13T09:28:15;10.80;;;7.90;;
15820;SDS011;8011;51.650;7.240;2022-09-13T09:31:00;7.70;;;6.90;;
15820;SDS011;8011;51.650;7.240;2022-09-13T09:36:44;14.13;;;8.40;;
15820;SDS011;8011;51.650;7.240;2022-09-13T09:39:28;13.67;;;8.03;;
15820;SDS011;8011;51.650;7.240;2022-09-13T09:41:57;9.53;;;7.23;;
15820;SDS011;8011;51.650;7.240;2022-09-13T09:44:25;9.27;;;7.90;;
15820;SDS011;8011;51.650;7.240;2022-09-13T09:49:45;11.10;;;8.03;;
15820;SDS011;8011;51.650;7.240;2022-09-13T09:53:15;10.40;;;8.53;;
15820;SDS011;8011;51.650;7.240;2022-09-13T09:55:44;11.67;;;8.57;;
15820;SDS011;8011;51.650;7.240;2022-09-13T09:58:14;12.87;;;9.40;;
15820;SDS011;8011;51.650;7.240;2022-09-13T10:00:54;10.47;;;8.53;;
15820;SDS011;8011;51.650;7.240;2022-09-13T10:03:28;9.57;;;8.67;;
15820;SDS011;8011;51.650;7.240;2022-09-13T10:06:17;9.27;;;8.27;;
15820;SDS011;8011;51.650;7.240;2022-09-13T10:09:04;10.30;;;7.80;;
15820;SDS011;8011;51.650;7.240;2022-09-13T10:14:25;11.77;;;8.77;;
15820;SDS011;8011;51.650;7.240;2022-09-13T10:17:05;9.87;;;7.30;;
15820;SDS011;8011;51.650;7.240;2022-09-13T10:19:41;11.50;;;7.67;;
15820;SDS011;8011;51.650;7.240;2022-09-13T10:22:20;8.90;;;7.83;;
15820;SDS011;8011;51.650;7.240;2022-09-13T10:24:47;12.10;;;8.23;;
15820;SDS011;8011;51.650;7.240;2022-09-13T10:27:24;10.43;;;7.70;;
15820;SDS011;8011;51.650;7.240;2022-09-13T10:29:59;10.80;;;8.43;;
15820;SDS011;8011;51.650;7.240;2022-09-13T10:32:26;12.37;;;8.50;;
15820;SDS011;8011;51.650;7.240;2022-09-13T10:34:54;10.20;;;8.50;;
15820;SDS011;8011;51.650;7.240;2022-09-13T10:37:27;11.97;;;8.20;;
15820;SDS011;8011;51.650;7.240;2022-09-13T10:40:15;11.77;;;9.70;;
15820;SDS011;8011;51.650;7.240;2022-09-13T10:42:51;11.53;;;9.23;;
15820;SDS011;8011;51.650;7.240;2022-09-13T10:45:22;11.27;;;9.20;;
15820;SDS011;8011;51.650;7.240;2022-09-13T10:47:50;11.77;;;9.40;;
15820;SDS011;8011;51.650;7.240;2022-09-13T10:50:28;12.10;;;9.07;;
15820;SDS011;8011;51.650;7.240;2022-09-13T10:53:00;11.00;;;9.40;;
15820;SDS011;8011;51.650;7.240;2022-09-13T11:06:19;11.37;;;8.63;;
15820;SDS011;8011;51.650;7.240;2022-09-13T11:09:14;9.30;;;7.53;;
15820;SDS011;8011;51.650;7.240;2022-09-13T11:22:29;9.90;;;7.63;;
15820;SDS011;8011;51.650;7.240;2022-09-13T11:25:40;10.50;;;8.67;;
15820;SDS011;8011;51.650;7.240;2022-09-13T11:34:04;11.40;;;8.30;;
15820;SDS011;8011;51.650;7.240;2022-09-13T11:42:07;8.90;;;7.77;;
15820;SDS011;8011;51.650;7.240;2022-09-13T11:47:47;9.90;;;8.00;;
15820;SDS011;8011;51.650;7.240;2022-09-13T11:50:48;9.13;;;6.70;;
15820;SDS011;8011;51.650;7.240;2022-09-13T11:55:49;10.23;;;8.80;;
15820;SDS011;8011;51.650;7.240;2022-09-13T11:58:20;11.30;;;8.87;;
15820;SDS011;8011;51.650;7.240;2022-09-13T12:00:56;9.57;;;8.55;;
15820;SDS011;8011;51.650;7.240;2022-09-13T12:03:39;10.67;;;8.83;;
15820;SDS011;8011;51.650;7.240;2022-09-13T12:06:30;10.70;;;7.97;;
15820;SDS011;8011;51.650;7.240;2022-09-13T12:09:22;12.40;;;9.30;;
15820;SDS011;8011;51.650;7.240;2022-09-13T12:12:02;10.90;;;8.30;;
15820;SDS011;8011;51.650;7.240;2022-09-13T12:17:43;10.07;;;8.97;;
15820;SDS011;8011;51.650;7.240;2022-09-13T12:20:22;9.90;;;7.60;;
15820;SDS011;8011;51.650;7.240;2022-09-13T12:23:01;9.55;;;7.85;;
15820;SDS011;8011;51.650;7.240;2022-09-13T12:25:41;7.20;;;6.60;;
15820;SDS011;8011;51.650;7.240;2022-09-13T12:28:27;8.25;;;6.45;;
15820;SDS011;8011;51.650;7.240;2022-09-13T12:31:00;7.97;;;7.05;;
15820;SDS011;8011;51.650;7.240;2022-09-13T12:33:29;8.57;;;7.63;;
15820;SDS011;8011;51.650;7.240;2022-09-13T12:56:02;6.17;;;5.57;;
15820;SDS011;8011;51.650;7.240;2022-09-13T12:58:47;8.25;;;5.60;;
15820;SDS011;8011;51.650;7.240;2022-09-13T13:01:32;5.83;;;4.83;;
15820;SDS011;8011;51.650;7.240;2022-09-13T13:04:03;6.80;;;4.70;;
15820;SDS011;8011;51.650;7.240;2022-09-13T13:12:09;5.45;;;4.95;;
15820;SDS011;8011;51.650;7.240;2022-09-13T13:14:49;6.90;;;5.10;;
15820;SDS011;8011;51.650;7.240;2022-09-13T13:18:19;7.80;;;5.72;;
15820;SDS011;8011;51.650;7.240;2022-09-13T13:23:34;7.80;;;5.60;;
15820;SDS011;8011;51.650;7.240;2022-09-13T13:31:09;6.55;;;4.10;;
15820;SDS011;8011;51.650;7.240;2022-09-13T13:33:45;5.18;;;3.72;;
15820;SDS011;8011;51.650;7.240;2022-09-13T13:38:58;6.65;;;4.47;;
15820;SDS011;8011;51.650;7.240;2022-09-13T13:41:52;5.68;;;5.15;;
15820;SDS011;8011;51.650;7.240;2022-09-13T13:46:44;4.93;;;3.97;;
15820;SDS011;8011;51.650;7.240;2022-09-13T14:00:21;5.68;;;5.15;;
15820;SDS011;8011;51.650;7.240;2022-09-13T14:05:26;4.82;;;4.32;;
15820;SDS011;8011;51.650;7.240;2022-09-13T14:19:54;5.50;;;4.30;;
15820;SDS011;8011;51.650;7.240;2022-09-13T14:22:43;5.43;;;4.93;;
15820;SDS011;8011;51.650;7.240;2022-09-13T14:27:44;5.05;;;4.55;;
15820;SDS011;8011;51.650;7.240;2022-09-13T14:30:16;5.82;;;5.28;;
15820;SDS011;8011;51.650;7.240;2022-09-13T14:32:48;8.45;;;6.07;;
15820;SDS011;8011;51.650;7.240;2022-09-13T14:35:30;7.63;;;6.43;;
15820;SDS011;8011;51.650;7.240;2022-09-13T14:38:22;7.28;;;5.70;;
15820;SDS011;8011;51.650;7.240;2022-09-13T14:40:58;6.13;;;5.53;;
15820;SDS011;8011;51.650;7.240;2022-09-13T14:43:44;6.30;;;5.25;;
15820;SDS011;8011;51.650;7.240;2022-09-13T14:48:56;6.70;;;5.38;;
15820;SDS011;8011;51.650;7.240;2022-09-13T14:51:31;8.50;;;5.45;;
15820;SDS011;8011;51.650;7.240;2022-09-13T14:54:04;5.35;;;4.85;;
15820;SDS011;8011;51.650;7.240;2022-09-13T14:56:40;6.35;;;5.63;;
15820;SDS011;8011;51.650;7.240;2022-09-13T15:04:47;5.60;;;4.55;;
15820;SDS011;8011;51.650;7.240;2022-09-13T15:07:20;4.95;;;4.35;;
15820;SDS011;8011;51.650;7.240;2022-09-13T15:10:41;5.78;;;4.80;;
15820;SDS011;8011;51.650;7.240;2022-09-13T15:12:53;5.80;;;4.82;;
15820;SDS011;8011;51.650;7.240;2022-09-13T15:23:28;5.72;;;4.70;;
15820;SDS011;8011;51.650;7.240;2022-09-13T15:26:06;5.30;;;4.80;;
15820;SDS011;8011;51.650;7.240;2022-09-13T15:31:27;6.75;;;5.13;;
15820;SDS011;8011;51.650;7.240;2022-09-13T15:36:42;5.27;;;4.10;;
15820;SDS011;8011;51.650;7.240;2022-09-13T15:41:53;5.40;;;4.03;;
15820;SDS011;8011;51.650;7.240;2022-09-13T15:44:21;5.60;;;5.07;;
15820;SDS011;8011;51.650;7.240;2022-09-13T15:46:48;5.47;;;4.57;;
15820;SDS011;8011;51.650;7.240;2022-09-13T15:49:20;4.30;;;3.90;;
15820;SDS011;8011;51.650;7.240;2022-09-13T15:51:52;5.40;;;3.53;;
15820;SDS011;8011;51.650;7.240;2022-09-13T15:54:19;4.10;;;3.70;;
15820;SDS011;8011;51.650;7.240;2022-09-13T15:56:47;5.00;;;4.50;;
15820;SDS011;8011;51.650;7.240;2022-09-13T15:59:17;6.90;;;4.20;;
15820;SDS011;8011;51.650;7.240;2022-09-13T16:01:46;6.37;;;4.13;;
15820;SDS011;8011;51.650;7.240;2022-09-13T16:04:13;6.37;;;4.03;;
15820;SDS011;8011;51.650;7.240;2022-09-13T16:06:40;5.30;;;4.10;;
15820;SDS011;8011;51.650;7.240;2022-09-13T16:09:17;4.40;;;4.00;;
15820;SDS011;8011;51.650;7.240;2022-09-13T16:11:48;4.93;;;4.50;;
15820;SDS011;8011;51.650;7.240;2022-09-13T16:14:15;4.23;;;3.83;;
15820;SDS011;8011;51.650;7.240;2022-09-13T16:16:42;4.60;;;3.88;;
15820;SDS011;8011;51.650;7.240;2022-09-13T16:19:11;5.45;;;4.10;;
15820;SDS011;8011;51.650;7.240;2022-09-13T16:21:42;4.73;;;4.20;;
15820;SDS011;8011;51.650;7.240;2022-09-13T16:24:08;5.17;;;4.53;;
15820;SDS011;8011;51.650;7.240;2022-09-13T16:26:33;5.93;;;4.50;;
15820;SDS011;8011;51.650;7.240;2022-09-13T16:28:59;5.43;;;4.40;;
15820;SDS011;8011;51.650;7.240;2022-09-13T16:31:25;5.47;;;4.10;;
15820;SDS011;8011;51.650;7.240;2022-09-13T16:33:51;7.60;;;4.70;;
15820;SDS011;8011;51.650;7.240;2022-09-13T16:36:16;4.17;;;3.80;;
15820;SDS011;8011;51.650;7.240;2022-09-13T16:38:42;3.83;;;3.50;;
15820;SDS011;8011;51.650;7.240;2022-09-13T16:41:08;4.43;;;3.80;;
15820;SDS011;8011;51.650;7.240;2022-09-13T16:43:33;4.87;;;4.00;;
15820;SDS011;8011;51.650;7.240;2022-09-13T16:46:09;6.03;;;3.40;;
15820;SDS011;8011;51.650;7.240;2022-09-13T16:48:38;4.40;;;4.00;;
15820;SDS011;8011;51.650;7.240;2022-09-13T16:51:05;6.13;;;4.30;;
15820;SDS011;8011;51.650;7.240;2022-09-13T16:53:32;3.60;;;3.30;;
15820;SDS011;8011;51.650;7.240;2022-09-13T16:56:03;4.50;;;3.53;;
15820;SDS011;8011;51.650;7.240;2022-09-13T16:58:38;4.60;;;3.30;;
15820;SDS011;8011;51.650;7.240;2022-09-13T17:01:05;5.43;;;3.33;;
15820;SDS011;8011;51.650;7.240;2022-09-13T17:03:31;3.80;;;3.40;;
15820;SDS011;8011;51.650;7.240;2022-09-13T17:06:00;4.00;;;3.10;;
15820;SDS011;8011;51.650;7.240;2022-09-13T17:08:27;6.57;;;3.40;;
15820;SDS011;8011;51.650;7.240;2022-09-13T17:10:53;5.83;;;2.87;;
15820;SDS011;8011;51.650;7.240;2022-09-13T17:13:19;3.00;;;2.70;;
15820;SDS011;8011;51.650;7.240;2022-09-13T17:15:45;3.57;;;2.70;;
15820;SDS011;8011;51.650;7.240;2022-09-13T17:18:10;2.87;;;2.60;;
15820;SDS011;8011;51.650;7.240;2022-09-13T17:20:42;3.37;;;2.90;;
15820;SDS011;8011;51.650;7.240;2022-09-13T17:23:09;2.90;;;2.70;;
15820;SDS011;8011;51.650;7.240;2022-09-13T17:25:35;2.87;;;2.60;;
15820;SDS011;8011;51.650;7.240;2022-09-13T17:28:01;4.13;;;2.70;;
15820;SDS011;8011;51.650;7.240;2022-09-13T17:30:27;2.50;;;2.30;;
15820;SDS011;8011;51.650;7.240;2022-09-13T17:32:53;3.07;;;2.77;;
15820;SDS011;8011;51.650;7.240;2022-09-13T17:35:19;4.83;;;2.47;;
15820;SDS011;8011;51.650;7.240;2022-09-13T17:37:46;3.07;;;2.77;;
15820;SDS011;8011;51.650;7.240;2022-09-13T17:40:12;3.10;;;2.43;;
15820;SDS011;8011;51.650;7.240;2022-09-13T17:42:37;2.47;;;2.27;;
15820;SDS011;8011;51.650;7.240;2022-09-13T17:45:03;2.93;;;2.57;;
15820;SDS011;8011;51.650;7.240;2022-09-13T17:47:29;3.60;;;2.70;;
15820;SDS011;8011;51.650;7.240;2022-09-13T17:49:55;3.00;;;2.33;;
15820;SDS011;8011;51.650;7.240;2022-09-13T17:52:20;3.83;;;2.57;;
15820;SDS011;8011;51.650;7.240;2022-09-13T17:54:46;3.20;;;2.47;;
15820;SDS011;8011;51.650;7.240;2022-09-13T17:57:14;3.57;;;2.40;;
15820;SDS011;8011;51.650;7.240;2022-09-13T17:59:39;4.17;;;2.40;;
15820;SDS011;8011;51.650;7.240;2022-09-13T18:02:05;2.47;;;2.27;;
15820;SDS011;8011;51.650;7.240;2022-09-13T18:04:31;3.63;;;2.10;;
15820;SDS011;8011;51.650;7.240;2022-09-13T18:06:56;2.57;;;2.20;;
15820;SDS011;8011;51.650;7.240;2022-09-13T18:09:22;2.20;;;2.10;;
15820;SDS011;8011;51.650;7.240;2022-09-13T18:11:49;2.27;;;2.00;;
15820;SDS011;8011;51.650;7.240;2022-09-13T18:14:15;2.73;;;2.00;;
15820;SDS011;8011;51.650;7.240;2022-09-13T18:16:42;2.33;;;2.13;;
15820;SDS011;8011;51.650;7.240;2022-09-13T18:19:08;4.47;;;1.77;;
15820;SDS011;8011;51.650;7.240;2022-09-13T18:21:35;2.10;;;1.90;;
15820;SDS011;8011;51.650;7.240;2022-09-13T18:24:01;1.73;;;1.63;;
15820;SDS011;8011;51.650;7.240;2022-09-13T18:26:28;1.90;;;1.60;;
15820;SDS011;8011;51.650;7.240;2022-09-13T18:28:57;2.43;;;1.70;;
15820;SDS011;8011;51.650;7.240;2022-09-13T18:31:26;1.77;;;1.50;;
15820;SDS011;8011;51.650;7.240;2022-09-13T18:33:53;1.53;;;1.43;;
15820;SDS011;8011;51.650;7.240;2022-09-13T18:36:24;1.80;;;1.40;;
15820;SDS011;8011;51.650;7.240;2022-09-13T18:38:51;1.67;;;1.50;;
15820;SDS011;8011;51.650;7.240;2022-09-13T18:41:19;1.67;;;1.57;;
15820;SDS011;8011;51.650;7.240;2022-09-13T18:43:54;2.67;;;1.73;;
15820;SDS011;8011;51.650;7.240;2022-09-13T18:46:21;1.83;;;1.50;;
15820;SDS011;8011;51.650;7.240;2022-09-13T18:48:49;1.60;;;1.30;;
15820;SDS011;8011;51.650;7.240;2022-09-13T18:51:21;2.67;;;1.43;;
15820;SDS011;8011;51.650;7.240;2022-09-13T18:53:49;4.10;;;1.50;;
15820;SDS011;8011;51.650;7.240;2022-09-13T18:56:17;1.83;;;1.27;;
15820;SDS011;8011;51.650;7.240;2022-09-13T18:58:44;2.20;;;1.00;;
15820;SDS011;8011;51.650;7.240;2022-09-13T19:03:37;2.13;;;1.30;;
15820;SDS011;8011;51.650;7.240;2022-09-13T19:06:13;1.70;;;1.20;;
15820;SDS011;8011;51.650;7.240;2022-09-13T19:08:39;1.23;;;0.93;;
15820;SDS011;8011;51.650;7.240;2022-09-13T19:11:06;2.87;;;1.10;;
15820;SDS011;8011;51.650;7.240;2022-09-13T19:13:32;1.90;;;1.20;;
15820;SDS011;8011;51.650;7.240;2022-09-13T19:15:58;1.47;;;0.90;;
15820;SDS011;8011;51.650;7.240;2022-09-13T19:18:25;1.50;;;0.90;;
15820;SDS011;8011;51.650;7.240;2022-09-13T19:20:51;4.10;;;0.97;;
15820;SDS011;8011;51.650;7.240;2022-09-13T19:23:24;2.23;;;1.07;;
15820;SDS011;8011;51.650;7.240;2022-09-13T19:25:50;2.90;;;0.70;;
15820;SDS011;8011;51.650;7.240;2022-09-13T19:28:15;1.57;;;0.60;;
15820;SDS011;8011;51.650;7.240;2022-09-13T19:30:41;1.43;;;0.80;;
15820;SDS011;8011;51.650;7.240;2022-09-13T19:33:07;1.83;;;0.80;;
15820;SDS011;8011;51.650;7.240;2022-09-13T19:35:34;1.77;;;0.90;;
15820;SDS011;8011;51.650;7.240;2022-09-13T19:38:00;1.10;;;0.70;;
15820;SDS011;8011;51.650;7.240;2022-09-13T19:40:26;1.53;;;0.70;;
15820;SDS011;8011;51.650;7.240;2022-09-13T19:42:52;4.27;;;0.90;;
15820;SDS011;8011;51.650;7.240;2022-09-13T19:45:17;1.17;;;0.70;;
15820;SDS011;8011;51.650;7.240;2022-09-13T19:47:43;2.33;;;0.63;;
15820;SDS011;8011;51.650;7.240;2022-09-13T19:50:10;0.87;;;0.60;;
15820;SDS011;8011;51.650;7.240;2022-09-13T19:52:36;1.10;;;0.60;;
15820;SDS011;8011;51.650;7.240;2022-09-13T19:55:01;1.90;;;0.77;;
15820;SDS011;8011;51.650;7.240;2022-09-13T19:57:27;1.80;;;0.73;;
15820;SDS011;8011;51.650;7.240;2022-09-13T19:59:53;2.83;;;0.90;;
15820;SDS011;8011;51.650;7.240;2022-09-13T20:02:19;2.87;;;0.77;;
15820;SDS011;8011;51.650;7.240;2022-09-13T20:04:45;2.10;;;0.70;;
15820;SDS011;8011;51.650;7.240;2022-09-13T20:07:12;1.60;;;0.63;;
15820;SDS011;8011;51.650;7.240;2022-09-13T20:09:38;6.00;;;0.77;;
15820;SDS011;8011;51.650;7.240;2022-09-13T20:12:06;2.13;;;0.80;;
15820;SDS011;8011;51.650;7.240;2022-09-13T20:14:32;2.63;;;0.63;;
15820;SDS011;8011;51.650;7.240;2022-09-13T20:16:58;2.53;;;0.73;;
15820;SDS011;8011;51.650;7.240;2022-09-13T20:19:28;1.53;;;0.90;;
15820;SDS011;8011;51.650;7.240;2022-09-13T20:21:53;2.23;;;0.70;;
15820;SDS011;8011;51.650;7.240;2022-09-13T20:24:19;1.47;;;1.07;;
15820;SDS011;8011;51.650;7.240;2022-09-13T20:26:45;1.87;;;0.80;;
15820;SDS011;8011;51.650;7.240;2022-09-13T20:29:11;3.90;;;0.93;;
15820;SDS011;8011;51.650;7.240;2022-09-13T20:31:38;0.70;;;0.53;;
15820;SDS011;8011;51.650;7.240;2022-09-13T20:34:05;3.07;;;0.93;;
15820;SDS011;8011;51.650;7.240;2022-09-13T20:36:32;5.90;;;0.70;;
15820;SDS011;8011;51.650;7.240;2022-09-13T20:39:00;1.37;;;0.50;;
15820;SDS011;8011;51.650;7.240;2022-09-13T20:41:27;4.30;;;0.70;;
15820;SDS011;8011;51.650;7.240;2022-09-13T20:43:53;1.00;;;0.70;;
15820;SDS011;8011;51.650;7.240;2022-09-13T20:46:20;1.50;;;0.60;;
15820;SDS011;8011;51.650;7.240;2022-09-13T20:48:46;1.83;;;0.70;;
15820;SDS011;8011;51.650;7.240;2022-09-13T20:51:14;4.73;;;0.90;;
15820;SDS011;8011;51.650;7.240;2022-09-13T20:53:42;1.07;;;0.60;;
15820;SDS011;8011;51.650;7.240;2022-09-13T20:56:14;2.70;;;0.50;;
15820;SDS011;8011;51.650;7.240;2022-09-13T20:58:41;1.57;;;0.70;;
15820;SDS011;8011;51.650;7.240;2022-09-13T21:01:09;2.50;;;0.50;;
15820;SDS011;8011;51.650;7.240;2022-09-13T21:03:44;4.77;;;0.93;;
15820;SDS011;8011;51.650;7.240;2022-09-13T21:06:10;4.20;;;1.07;;
15820;SDS011;8011;51.650;7.240;2022-09-13T21:08:36;3.77;;;0.80;;
15820;SDS011;8011;51.650;7.240;2022-09-13T21:11:10;1.70;;;0.90;;
15820;SDS011;8011;51.650;7.240;2022-09-13T21:13:54;2.33;;;0.60;;
15820;SDS011;8011;51.650;7.240;2022-09-13T21:16:30;3.10;;;0.90;;
15820;SDS011;8011;51.650;7.240;2022-09-13T21:19:01;3.90;;;0.60;;
15820;SDS011;8011;51.650;7.240;2022-09-13T21:21:28;2.73;;;0.80;;
15820;SDS011;8011;51.650;7.240;2022-09-13T21:23:56;1.33;;;0.67;;